HKJKHKMO

Guest
Details From HKJK - Nairobi Jomo Kanyatta Intl
To HKMO - Mombasa Moi Intl
Flight Number -
Tags Decoded
Created
Modified
Stats Distance 233 nm / 431 km
Max Altitude 0 ft / 0 m
Waypoints 5
Social Downloads 9
Likes 0
Share VATSIM

Download

Looking for another format? Having issues loading an existing format? Contact us
Advertisement - Login to hide

Notes

Decoded

Route

HKJK IMSAN GITNO MOV HKMO

ID Type Via Altitude Latitude Longitude Leg Dist Tot Dist Heading (true) Name
O HKJK APT - 0 ft / 0 m -1.32774˚ 36.91612˚ - 0 nm - -
IMSAN FIX - 0 ft / 0 m -2.50251˚ 38.11754˚ 100 nm 100 nm 134° / 134° -
GITNO FIX - 0 ft / 0 m -2.98581˚ 38.65922˚ 43 nm 144 nm 132° / 132° -
MOV VOR - 0 ft / 0 m -3.94854˚ 39.64274˚ 82 nm 227 nm 134° / 134° MOMBASA VOR-DME
O HKMO APT - 0 ft / 0 m -4.02983˚ 39.59137˚ 5 nm 232 nm 212° / 212° -

Altitude Profile

Advertisement - Login to hide

Weather


0- 5 10 15 20 25 30 35+ Temperature / ° C

Clouds and Precipitation
Forecast for 2017-12-16 18:00 UTC. Updated an hour ago

Ground ~20,000 ft ~40,000 ft Winds

HKJK

Details ICAO HKJK (NBO)
Name Nairobi Jomo Kanyatta Intl
Region Kenya
Timezone Africa/Nairobi (UTC+3.0)
Stats Elevation 5,330 ft / 1,625 m (AMSL)
Location -1.317073° 36.930757°
Runways 1
Magnetic Variation 0.576° E

METAR

HKJK 161800Z 09011KT 9999 FEW022 21/13 Q1021 NOSIG

Decode

TAF

TAF HKJK 161700Z 1618/1724 03005KT 9999 FEW021 BECMG 1708/1711 07010KT FEW027 BECMG 1720/1723 04005KT FEW020

Decode

Departure Runways

ID Width Length Bearing (true) Bearing (mag) Surface Threshold Offset Overrun Length
06 148 ft / 45 m 13,215 ft / 4,028 m 53.90° 53.32° Asphalt 0 ft / 0 m 194 ft / 59 m
24 148 ft / 45 m 13,215 ft / 4,028 m 233.90° 233.32° Asphalt 0 ft / 0 m 197 ft / 60 m

HKMO

Details ICAO HKMO (MBA)
Name MOMBASA MOI INTL
Region Kenya
Timezone Africa/Nairobi (UTC+3.0)
Stats Elevation 200 ft / 61 m (AMSL)
Location -4.030744° 39.596732°
Runways 2
Magnetic Variation 0.939° W

METAR

HKMO 161800Z 05004KT 9999 FEW025 26/23 Q1012 NOSIG

Decode

TAF

TAF HKMO 161700Z 1618/1724 06005KT 9999 FEW022 BECMG 1700/1706 33005KT FEW019 BECMG 1709/1715 09010KT SCT025

Decode

Destination Runways

ID Width Length Bearing (true) Bearing (mag) Surface Threshold Offset Overrun Length
03 151 ft / 46 m 11,040 ft / 3,365 m 29.14° 30.08° Asphalt 2,503 ft / 763 m 197 ft / 60 m
15 118 ft / 36 m 4,492 ft / 1,369 m 150.47° 151.41° Asphalt 0 ft / 0 m 190 ft / 58 m
21 151 ft / 46 m 11,040 ft / 3,365 m 209.14° 210.08° Asphalt 0 ft / 0 m 197 ft / 60 m
33 118 ft / 36 m 4,492 ft / 1,369 m 330.47° 331.41° Asphalt 0 ft / 0 m 250 ft / 76 m

Approach Navaids

Runway Type Ident Frequency Range Bearing (true) Bearing (mag) Slope Elevation
21 Localiser IMI 110.10 MHz 18 nm / 33 km 209.16° 210.10° - 187 ft / 57 m (AMSL)
21 Glidescope IMI 110.10 MHz 10 nm / 19 km 209.14° 210.07° 3.00° 194 ft / 59 m (AMSL)
21 DME IMI 110.10 MHz 18 nm / 33 km - - - 257 ft / 78 m (AMSL)

Popular Alternatives